sensor_id;sensor_type;location;lat;lon;timestamp;P1;durP1;ratioP1;P2;durP2;ratioP2
7983;SDS011;4037;47.980;10.172;2022-07-29T00:00:47;4.07;;;3.03;;
7983;SDS011;4037;47.980;10.172;2022-07-29T00:03:13;4.20;;;2.70;;
7983;SDS011;4037;47.980;10.172;2022-07-29T00:05:40;3.00;;;2.70;;
7983;SDS011;4037;47.980;10.172;2022-07-29T00:08:06;3.17;;;2.87;;
7983;SDS011;4037;47.980;10.172;2022-07-29T00:10:32;4.23;;;2.53;;
7983;SDS011;4037;47.980;10.172;2022-07-29T00:12:58;3.20;;;2.50;;
7983;SDS011;4037;47.980;10.172;2022-07-29T00:15:24;4.80;;;3.00;;
7983;SDS011;4037;47.980;10.172;2022-07-29T00:17:50;4.30;;;2.93;;
7983;SDS011;4037;47.980;10.172;2022-07-29T00:20:16;3.40;;;2.73;;
7983;SDS011;4037;47.980;10.172;2022-07-29T00:22:42;3.90;;;2.97;;
7983;SDS011;4037;47.980;10.172;2022-07-29T00:25:08;5.03;;;2.60;;
7983;SDS011;4037;47.980;10.172;2022-07-29T00:27:35;3.43;;;3.00;;
7983;SDS011;4037;47.980;10.172;2022-07-29T00:30:01;4.17;;;2.97;;
7983;SDS011;4037;47.980;10.172;2022-07-29T00:32:27;3.47;;;2.80;;
7983;SDS011;4037;47.980;10.172;2022-07-29T00:34:53;3.77;;;3.40;;
7983;SDS011;4037;47.980;10.172;2022-07-29T00:37:38;3.33;;;3.00;;
7983;SDS011;4037;47.980;10.172;2022-07-29T00:40:04;4.30;;;3.10;;
7983;SDS011;4037;47.980;10.172;2022-07-29T00:42:30;3.73;;;2.97;;
7983;SDS011;4037;47.980;10.172;2022-07-29T00:44:56;4.20;;;3.20;;
7983;SDS011;4037;47.980;10.172;2022-07-29T00:47:22;3.03;;;2.73;;
7983;SDS011;4037;47.980;10.172;2022-07-29T00:49:48;4.53;;;2.97;;
7983;SDS011;4037;47.980;10.172;2022-07-29T00:52:14;3.03;;;2.70;;
7983;SDS011;4037;47.980;10.172;2022-07-29T00:54:40;3.30;;;2.90;;
7983;SDS011;4037;47.980;10.172;2022-07-29T00:57:06;4.47;;;3.07;;
7983;SDS011;4037;47.980;10.172;2022-07-29T00:59:33;3.10;;;2.77;;
7983;SDS011;4037;47.980;10.172;2022-07-29T01:01:59;3.47;;;3.00;;
7983;SDS011;4037;47.980;10.172;2022-07-29T01:04:25;3.63;;;3.33;;
7983;SDS011;4037;47.980;10.172;2022-07-29T01:06:52;5.30;;;3.20;;
7983;SDS011;4037;47.980;10.172;2022-07-29T01:09:19;5.00;;;3.43;;
7983;SDS011;4037;47.980;10.172;2022-07-29T01:11:45;4.83;;;3.50;;
7983;SDS011;4037;47.980;10.172;2022-07-29T01:14:15;5.03;;;3.53;;
7983;SDS011;4037;47.980;10.172;2022-07-29T01:17:05;3.97;;;3.10;;
7983;SDS011;4037;47.980;10.172;2022-07-29T01:19:33;3.53;;;3.20;;
7983;SDS011;4037;47.980;10.172;2022-07-29T01:22:58;3.20;;;2.90;;
7983;SDS011;4037;47.980;10.172;2022-07-29T01:30:14;2.60;;;2.40;;
7983;SDS011;4037;47.980;10.172;2022-07-29T01:32:40;3.57;;;2.70;;
7983;SDS011;4037;47.980;10.172;2022-07-29T01:35:10;3.60;;;2.47;;
7983;SDS011;4037;47.980;10.172;2022-07-29T01:37:52;3.00;;;2.77;;
7983;SDS011;4037;47.980;10.172;2022-07-29T01:42:55;2.77;;;2.57;;
7983;SDS011;4037;47.980;10.172;2022-07-29T01:50:38;5.87;;;3.10;;
7983;SDS011;4037;47.980;10.172;2022-07-29T01:53:06;3.07;;;2.40;;
7983;SDS011;4037;47.980;10.172;2022-07-29T01:55:35;3.23;;;2.30;;
7983;SDS011;4037;47.980;10.172;2022-07-29T01:58:03;2.53;;;2.33;;
7983;SDS011;4037;47.980;10.172;2022-07-29T02:00:29;3.93;;;2.60;;
7983;SDS011;4037;47.980;10.172;2022-07-29T02:02:56;4.50;;;2.67;;
7983;SDS011;4037;47.980;10.172;2022-07-29T02:05:24;3.10;;;2.80;;
7983;SDS011;4037;47.980;10.172;2022-07-29T02:07:52;3.10;;;2.80;;
7983;SDS011;4037;47.980;10.172;2022-07-29T02:10:19;4.30;;;3.10;;
7983;SDS011;4037;47.980;10.172;2022-07-29T02:12:46;7.03;;;3.07;;
7983;SDS011;4037;47.980;10.172;2022-07-29T02:15:13;2.67;;;2.43;;
7983;SDS011;4037;47.980;10.172;2022-07-29T02:17:50;4.57;;;3.00;;
7983;SDS011;4037;47.980;10.172;2022-07-29T02:20:17;4.77;;;2.83;;
7983;SDS011;4037;47.980;10.172;2022-07-29T02:22:44;2.83;;;2.30;;
7983;SDS011;4037;47.980;10.172;2022-07-29T02:25:10;2.77;;;2.40;;
7983;SDS011;4037;47.980;10.172;2022-07-29T02:27:37;4.20;;;3.07;;
7983;SDS011;4037;47.980;10.172;2022-07-29T02:30:03;3.37;;;2.33;;
7983;SDS011;4037;47.980;10.172;2022-07-29T02:32:30;3.97;;;3.17;;
7983;SDS011;4037;47.980;10.172;2022-07-29T02:34:57;3.10;;;2.80;;
7983;SDS011;4037;47.980;10.172;2022-07-29T02:37:24;4.10;;;2.77;;
7983;SDS011;4037;47.980;10.172;2022-07-29T02:39:52;4.03;;;2.63;;
7983;SDS011;4037;47.980;10.172;2022-07-29T02:42:18;4.73;;;2.80;;
7983;SDS011;4037;47.980;10.172;2022-07-29T02:44:46;4.70;;;3.17;;
7983;SDS011;4037;47.980;10.172;2022-07-29T02:49:41;3.90;;;3.60;;
7983;SDS011;4037;47.980;10.172;2022-07-29T02:52:12;3.77;;;2.90;;
7983;SDS011;4037;47.980;10.172;2022-07-29T02:59:50;4.93;;;3.40;;
7983;SDS011;4037;47.980;10.172;2022-07-29T03:02:17;4.07;;;3.20;;
7983;SDS011;4037;47.980;10.172;2022-07-29T03:04:43;3.10;;;2.80;;
7983;SDS011;4037;47.980;10.172;2022-07-29T03:07:10;5.43;;;2.93;;
7983;SDS011;4037;47.980;10.172;2022-07-29T03:09:38;9.47;;;3.70;;
7983;SDS011;4037;47.980;10.172;2022-07-29T03:12:06;6.00;;;2.60;;
7983;SDS011;4037;47.980;10.172;2022-07-29T03:14:32;4.00;;;3.00;;
7983;SDS011;4037;47.980;10.172;2022-07-29T03:16:59;7.07;;;3.17;;
7983;SDS011;4037;47.980;10.172;2022-07-29T03:19:25;4.83;;;3.00;;
7983;SDS011;4037;47.980;10.172;2022-07-29T03:21:51;6.50;;;4.30;;
7983;SDS011;4037;47.980;10.172;2022-07-29T03:24:31;6.80;;;2.70;;
7983;SDS011;4037;47.980;10.172;2022-07-29T03:26:58;3.60;;;2.80;;
7983;SDS011;4037;47.980;10.172;2022-07-29T03:29:24;4.13;;;2.70;;
7983;SDS011;4037;47.980;10.172;2022-07-29T03:31:50;3.37;;;3.07;;
7983;SDS011;4037;47.980;10.172;2022-07-29T03:34:17;3.20;;;2.87;;
7983;SDS011;4037;47.980;10.172;2022-07-29T03:36:43;3.43;;;3.03;;
7983;SDS011;4037;47.980;10.172;2022-07-29T03:39:09;3.33;;;3.03;;
7983;SDS011;4037;47.980;10.172;2022-07-29T03:41:36;4.57;;;3.20;;
7983;SDS011;4037;47.980;10.172;2022-07-29T03:44:02;4.47;;;3.17;;
7983;SDS011;4037;47.980;10.172;2022-07-29T03:46:29;3.27;;;2.97;;
7983;SDS011;4037;47.980;10.172;2022-07-29T03:48:58;5.47;;;3.20;;
7983;SDS011;4037;47.980;10.172;2022-07-29T03:51:25;3.33;;;2.87;;
7983;SDS011;4037;47.980;10.172;2022-07-29T03:53:52;4.33;;;2.93;;
7983;SDS011;4037;47.980;10.172;2022-07-29T03:56:20;4.40;;;2.70;;
7983;SDS011;4037;47.980;10.172;2022-07-29T03:58:46;3.47;;;2.80;;
7983;SDS011;4037;47.980;10.172;2022-07-29T04:01:13;3.23;;;2.90;;
7983;SDS011;4037;47.980;10.172;2022-07-29T04:03:42;4.63;;;3.13;;
7983;SDS011;4037;47.980;10.172;2022-07-29T04:06:10;5.27;;;2.83;;
7983;SDS011;4037;47.980;10.172;2022-07-29T04:08:36;2.80;;;2.60;;
7983;SDS011;4037;47.980;10.172;2022-07-29T04:11:03;3.97;;;3.00;;
7983;SDS011;4037;47.980;10.172;2022-07-29T04:13:29;3.30;;;3.00;;
7983;SDS011;4037;47.980;10.172;2022-07-29T04:15:55;2.60;;;2.40;;
7983;SDS011;4037;47.980;10.172;2022-07-29T04:18:21;3.23;;;2.67;;
7983;SDS011;4037;47.980;10.172;2022-07-29T04:20:47;2.93;;;2.63;;
7983;SDS011;4037;47.980;10.172;2022-07-29T04:23:13;2.90;;;2.33;;
7983;SDS011;4037;47.980;10.172;2022-07-29T04:25:40;4.10;;;3.00;;
7983;SDS011;4037;47.980;10.172;2022-07-29T04:28:06;3.53;;;2.53;;
7983;SDS011;4037;47.980;10.172;2022-07-29T04:30:33;3.60;;;2.77;;
7983;SDS011;4037;47.980;10.172;2022-07-29T04:33:00;3.83;;;2.97;;
7983;SDS011;4037;47.980;10.172;2022-07-29T04:35:26;2.93;;;2.40;;
7983;SDS011;4037;47.980;10.172;2022-07-29T04:37:53;3.23;;;2.20;;
7983;SDS011;4037;47.980;10.172;2022-07-29T04:40:19;5.67;;;2.77;;
7983;SDS011;4037;47.980;10.172;2022-07-29T04:42:45;4.23;;;2.70;;
7983;SDS011;4037;47.980;10.172;2022-07-29T04:45:11;3.20;;;2.30;;
7983;SDS011;4037;47.980;10.172;2022-07-29T04:47:37;3.00;;;2.40;;
7983;SDS011;4037;47.980;10.172;2022-07-29T04:50:03;2.20;;;2.00;;
7983;SDS011;4037;47.980;10.172;2022-07-29T04:52:30;2.87;;;2.23;;
7983;SDS011;4037;47.980;10.172;2022-07-29T04:54:56;5.23;;;2.77;;
7983;SDS011;4037;47.980;10.172;2022-07-29T04:57:22;3.47;;;2.00;;
7983;SDS011;4037;47.980;10.172;2022-07-29T04:59:48;3.10;;;2.03;;
7983;SDS011;4037;47.980;10.172;2022-07-29T05:02:14;5.03;;;2.00;;
7983;SDS011;4037;47.980;10.172;2022-07-29T05:04:40;3.17;;;2.23;;
7983;SDS011;4037;47.980;10.172;2022-07-29T05:07:06;3.00;;;2.10;;
7983;SDS011;4037;47.980;10.172;2022-07-29T05:09:32;3.57;;;2.17;;
7983;SDS011;4037;47.980;10.172;2022-07-29T05:11:58;3.73;;;2.37;;
7983;SDS011;4037;47.980;10.172;2022-07-29T05:14:24;2.30;;;2.00;;
7983;SDS011;4037;47.980;10.172;2022-07-29T05:16:50;2.17;;;2.03;;
7983;SDS011;4037;47.980;10.172;2022-07-29T05:19:17;3.00;;;2.10;;
7983;SDS011;4037;47.980;10.172;2022-07-29T05:21:46;2.90;;;2.03;;
7983;SDS011;4037;47.980;10.172;2022-07-29T05:24:12;1.70;;;1.60;;
7983;SDS011;4037;47.980;10.172;2022-07-29T05:26:39;2.33;;;2.00;;
7983;SDS011;4037;47.980;10.172;2022-07-29T05:29:05;2.47;;;1.80;;
7983;SDS011;4037;47.980;10.172;2022-07-29T05:31:31;1.87;;;1.50;;
7983;SDS011;4037;47.980;10.172;2022-07-29T05:33:58;2.23;;;1.80;;
7983;SDS011;4037;47.980;10.172;2022-07-29T05:36:24;2.40;;;2.20;;
7983;SDS011;4037;47.980;10.172;2022-07-29T05:38:50;3.63;;;2.30;;
7983;SDS011;4037;47.980;10.172;2022-07-29T05:41:17;2.67;;;1.63;;
7983;SDS011;4037;47.980;10.172;2022-07-29T05:43:43;2.20;;;2.00;;
7983;SDS011;4037;47.980;10.172;2022-07-29T05:46:09;3.67;;;2.03;;
7983;SDS011;4037;47.980;10.172;2022-07-29T05:48:35;2.43;;;1.93;;
7983;SDS011;4037;47.980;10.172;2022-07-29T05:51:02;1.93;;;1.83;;
7983;SDS011;4037;47.980;10.172;2022-07-29T05:53:28;3.17;;;1.83;;
7983;SDS011;4037;47.980;10.172;2022-07-29T05:55:54;2.37;;;1.97;;
7983;SDS011;4037;47.980;10.172;2022-07-29T05:58:20;2.47;;;2.00;;
7983;SDS011;4037;47.980;10.172;2022-07-29T06:00:46;4.37;;;2.00;;
7983;SDS011;4037;47.980;10.172;2022-07-29T06:03:12;2.13;;;1.93;;
7983;SDS011;4037;47.980;10.172;2022-07-29T06:05:38;2.13;;;1.93;;
7983;SDS011;4037;47.980;10.172;2022-07-29T06:08:04;1.97;;;1.70;;
7983;SDS011;4037;47.980;10.172;2022-07-29T06:10:32;2.87;;;1.83;;
7983;SDS011;4037;47.980;10.172;2022-07-29T06:12:58;2.50;;;2.07;;
7983;SDS011;4037;47.980;10.172;2022-07-29T06:15:24;2.97;;;2.53;;
7983;SDS011;4037;47.980;10.172;2022-07-29T06:17:49;3.33;;;2.27;;
7983;SDS011;4037;47.980;10.172;2022-07-29T06:20:16;2.03;;;1.83;;
7983;SDS011;4037;47.980;10.172;2022-07-29T06:22:42;3.30;;;1.70;;
7983;SDS011;4037;47.980;10.172;2022-07-29T06:25:08;1.90;;;1.60;;
7983;SDS011;4037;47.980;10.172;2022-07-29T06:27:34;4.00;;;1.97;;
7983;SDS011;4037;47.980;10.172;2022-07-29T06:30:00;2.80;;;2.20;;
7983;SDS011;4037;47.980;10.172;2022-07-29T06:32:26;4.13;;;1.83;;
7983;SDS011;4037;47.980;10.172;2022-07-29T06:34:52;2.30;;;1.90;;
7983;SDS011;4037;47.980;10.172;2022-07-29T06:37:18;4.13;;;1.90;;
7983;SDS011;4037;47.980;10.172;2022-07-29T06:39:44;2.97;;;1.90;;
7983;SDS011;4037;47.980;10.172;2022-07-29T06:42:10;2.20;;;2.00;;
7983;SDS011;4037;47.980;10.172;2022-07-29T06:44:37;2.20;;;1.90;;
7983;SDS011;4037;47.980;10.172;2022-07-29T06:47:03;3.97;;;1.90;;
7983;SDS011;4037;47.980;10.172;2022-07-29T06:49:29;2.70;;;1.80;;
7983;SDS011;4037;47.980;10.172;2022-07-29T06:51:55;2.77;;;2.20;;
7983;SDS011;4037;47.980;10.172;2022-07-29T06:54:21;4.77;;;2.80;;
7983;SDS011;4037;47.980;10.172;2022-07-29T06:56:47;2.43;;;2.23;;
7983;SDS011;4037;47.980;10.172;2022-07-29T06:59:13;2.80;;;2.23;;
7983;SDS011;4037;47.980;10.172;2022-07-29T07:01:40;3.57;;;2.23;;
7983;SDS011;4037;47.980;10.172;2022-07-29T07:04:07;6.67;;;2.27;;
7983;SDS011;4037;47.980;10.172;2022-07-29T07:06:33;4.03;;;2.30;;
7983;SDS011;4037;47.980;10.172;2022-07-29T07:08:59;2.40;;;2.20;;
7983;SDS011;4037;47.980;10.172;2022-07-29T07:11:25;2.90;;;2.50;;
7983;SDS011;4037;47.980;10.172;2022-07-29T07:13:52;2.53;;;2.30;;
7983;SDS011;4037;47.980;10.172;2022-07-29T07:16:18;2.17;;;1.93;;
7983;SDS011;4037;47.980;10.172;2022-07-29T07:18:44;3.60;;;2.00;;
7983;SDS011;4037;47.980;10.172;2022-07-29T07:21:11;2.73;;;2.10;;
7983;SDS011;4037;47.980;10.172;2022-07-29T07:23:37;2.73;;;1.90;;
7983;SDS011;4037;47.980;10.172;2022-07-29T07:26:03;2.20;;;2.00;;
7983;SDS011;4037;47.980;10.172;2022-07-29T07:28:30;3.93;;;2.20;;
7983;SDS011;4037;47.980;10.172;2022-07-29T07:30:56;2.00;;;1.90;;
7983;SDS011;4037;47.980;10.172;2022-07-29T07:33:22;2.47;;;2.27;;
7983;SDS011;4037;47.980;10.172;2022-07-29T07:35:49;1.73;;;1.63;;
7983;SDS011;4037;47.980;10.172;2022-07-29T07:38:15;3.00;;;2.10;;
7983;SDS011;4037;47.980;10.172;2022-07-29T07:40:41;2.07;;;1.80;;
7983;SDS011;4037;47.980;10.172;2022-07-29T07:43:07;2.40;;;1.83;;
7983;SDS011;4037;47.980;10.172;2022-07-29T07:45:34;1.90;;;1.80;;
7983;SDS011;4037;47.980;10.172;2022-07-29T07:48:02;2.27;;;1.80;;
7983;SDS011;4037;47.980;10.172;2022-07-29T07:50:28;3.00;;;1.83;;
7983;SDS011;4037;47.980;10.172;2022-07-29T07:52:54;2.30;;;2.10;;
7983;SDS011;4037;47.980;10.172;2022-07-29T07:55:24;3.63;;;1.90;;
7983;SDS011;4037;47.980;10.172;2022-07-29T07:57:51;2.30;;;1.83;;
7983;SDS011;4037;47.980;10.172;2022-07-29T08:00:17;2.80;;;2.00;;
7983;SDS011;4037;47.980;10.172;2022-07-29T08:02:43;2.00;;;1.80;;
7983;SDS011;4037;47.980;10.172;2022-07-29T08:05:10;2.27;;;1.80;;
7983;SDS011;4037;47.980;10.172;2022-07-29T08:07:37;1.60;;;1.50;;
7983;SDS011;4037;47.980;10.172;2022-07-29T08:10:03;1.90;;;1.60;;
7983;SDS011;4037;47.980;10.172;2022-07-29T08:12:29;2.47;;;1.60;;
7983;SDS011;4037;47.980;10.172;2022-07-29T08:14:55;1.90;;;1.63;;
7983;SDS011;4037;47.980;10.172;2022-07-29T08:17:21;3.67;;;2.00;;
7983;SDS011;4037;47.980;10.172;2022-07-29T08:19:47;2.23;;;1.60;;
7983;SDS011;4037;47.980;10.172;2022-07-29T08:22:14;2.13;;;1.60;;
7983;SDS011;4037;47.980;10.172;2022-07-29T08:24:40;1.43;;;1.33;;
7983;SDS011;4037;47.980;10.172;2022-07-29T08:27:12;2.40;;;1.80;;
7983;SDS011;4037;47.980;10.172;2022-07-29T08:29:38;1.70;;;1.60;;
7983;SDS011;4037;47.980;10.172;2022-07-29T08:32:04;2.60;;;2.00;;
7983;SDS011;4037;47.980;10.172;2022-07-29T08:34:30;2.30;;;1.80;;
7983;SDS011;4037;47.980;10.172;2022-07-29T08:36:56;1.90;;;1.70;;
7983;SDS011;4037;47.980;10.172;2022-07-29T08:39:23;2.33;;;1.80;;
7983;SDS011;4037;47.980;10.172;2022-07-29T08:41:49;3.27;;;2.67;;
7983;SDS011;4037;47.980;10.172;2022-07-29T08:44:16;2.10;;;1.90;;
7983;SDS011;4037;47.980;10.172;2022-07-29T08:46:42;2.17;;;1.80;;
7983;SDS011;4037;47.980;10.172;2022-07-29T08:49:09;4.57;;;2.03;;
7983;SDS011;4037;47.980;10.172;2022-07-29T08:51:35;2.20;;;2.00;;
7983;SDS011;4037;47.980;10.172;2022-07-29T08:54:02;2.70;;;2.10;;
7983;SDS011;4037;47.980;10.172;2022-07-29T08:56:28;2.23;;;2.03;;
7983;SDS011;4037;47.980;10.172;2022-07-29T08:58:54;1.90;;;1.70;;
7983;SDS011;4037;47.980;10.172;2022-07-29T09:01:25;3.03;;;2.00;;
7983;SDS011;4037;47.980;10.172;2022-07-29T09:03:56;2.80;;;1.60;;
7983;SDS011;4037;47.980;10.172;2022-07-29T09:06:22;2.00;;;1.77;;
7983;SDS011;4037;47.980;10.172;2022-07-29T09:08:52;3.25;;;1.98;;
7983;SDS011;4037;47.980;10.172;2022-07-29T09:11:19;2.20;;;2.00;;
7983;SDS011;4037;47.980;10.172;2022-07-29T09:13:45;2.93;;;2.53;;
7983;SDS011;4037;47.980;10.172;2022-07-29T09:16:12;4.30;;;2.90;;
7983;SDS011;4037;47.980;10.172;2022-07-29T09:18:40;3.00;;;2.57;;
7983;SDS011;4037;47.980;10.172;2022-07-29T09:21:08;2.97;;;2.53;;
7983;SDS011;4037;47.980;10.172;2022-07-29T09:24:00;8.30;;;6.95;;
7983;SDS011;4037;47.980;10.172;2022-07-29T09:26:30;3.13;;;2.83;;
7983;SDS011;4037;47.980;10.172;2022-07-29T09:28:56;3.37;;;2.50;;
7983;SDS011;4037;47.980;10.172;2022-07-29T09:31:31;3.45;;;2.50;;
7983;SDS011;4037;47.980;10.172;2022-07-29T09:33:58;2.13;;;1.93;;
7983;SDS011;4037;47.980;10.172;2022-07-29T09:36:25;3.27;;;2.40;;
7983;SDS011;4037;47.980;10.172;2022-07-29T09:38:57;2.20;;;2.00;;
7983;SDS011;4037;47.980;10.172;2022-07-29T09:41:24;2.78;;;2.58;;
7983;SDS011;4037;47.980;10.172;2022-07-29T09:43:58;4.43;;;2.30;;
7983;SDS011;4037;47.980;10.172;2022-07-29T09:46:24;3.10;;;2.37;;
7983;SDS011;4037;47.980;10.172;2022-07-29T09:51:35;4.30;;;2.30;;
7983;SDS011;4037;47.980;10.172;2022-07-29T09:54:02;2.57;;;2.30;;
7983;SDS011;4037;47.980;10.172;2022-07-29T09:56:41;2.20;;;1.97;;
7983;SDS011;4037;47.980;10.172;2022-07-29T09:59:08;2.87;;;1.70;;
7983;SDS011;4037;47.980;10.172;2022-07-29T10:01:36;1.90;;;1.77;;
7983;SDS011;4037;47.980;10.172;2022-07-29T10:04:02;3.07;;;2.17;;
7983;SDS011;4037;47.980;10.172;2022-07-29T10:06:28;2.30;;;1.65;;
7983;SDS011;4037;47.980;10.172;2022-07-29T10:08:54;1.63;;;1.52;;
7983;SDS011;4037;47.980;10.172;2022-07-29T10:11:20;1.75;;;1.60;;
7983;SDS011;4037;47.980;10.172;2022-07-29T10:13:47;2.83;;;1.77;;
7983;SDS011;4037;47.980;10.172;2022-07-29T10:16:14;1.77;;;1.60;;
7983;SDS011;4037;47.980;10.172;2022-07-29T10:18:41;3.47;;;1.98;;
7983;SDS011;4037;47.980;10.172;2022-07-29T10:21:08;1.73;;;1.60;;
7983;SDS011;4037;47.980;10.172;2022-07-29T10:23:35;1.77;;;1.67;;
7983;SDS011;4037;47.980;10.172;2022-07-29T10:26:02;2.10;;;1.90;;
7983;SDS011;4037;47.980;10.172;2022-07-29T10:28:29;1.70;;;1.60;;
7983;SDS011;4037;47.980;10.172;2022-07-29T10:30:59;1.98;;;1.77;;
7983;SDS011;4037;47.980;10.172;2022-07-29T10:33:33;1.80;;;1.63;;
7983;SDS011;4037;47.980;10.172;2022-07-29T10:44:01;2.38;;;1.98;;
7983;SDS011;4037;47.980;10.172;2022-07-29T10:46:27;2.88;;;1.80;;
7983;SDS011;4037;47.980;10.172;2022-07-29T10:49:36;4.18;;;1.98;;
7983;SDS011;4037;47.980;10.172;2022-07-29T10:59:38;2.25;;;2.05;;
7983;SDS011;4037;47.980;10.172;2022-07-29T11:07:15;2.28;;;2.03;;
7983;SDS011;4037;47.980;10.172;2022-07-29T11:09:42;2.53;;;2.05;;
7983;SDS011;4037;47.980;10.172;2022-07-29T11:14:55;2.25;;;2.05;;
7983;SDS011;4037;47.980;10.172;2022-07-29T11:17:22;3.13;;;2.00;;
7983;SDS011;4037;47.980;10.172;2022-07-29T11:19:48;2.35;;;2.15;;
7983;SDS011;4037;47.980;10.172;2022-07-29T11:22:32;3.22;;;2.17;;
7983;SDS011;4037;47.980;10.172;2022-07-29T11:27:54;2.67;;;2.30;;
7983;SDS011;4037;47.980;10.172;2022-07-29T11:30:47;3.03;;;2.40;;
7983;SDS011;4037;47.980;10.172;2022-07-29T11:33:27;3.67;;;2.20;;
7983;SDS011;4037;47.980;10.172;2022-07-29T11:36:09;3.40;;;2.63;;
7983;SDS011;4037;47.980;10.172;2022-07-29T11:38:36;2.80;;;2.17;;
7983;SDS011;4037;47.980;10.172;2022-07-29T11:47:04;3.00;;;2.73;;
7983;SDS011;4037;47.980;10.172;2022-07-29T11:49:05;2.90;;;2.63;;
7983;SDS011;4037;47.980;10.172;2022-07-29T11:51:31;2.80;;;2.58;;
7983;SDS011;4037;47.980;10.172;2022-07-29T11:53:58;2.92;;;2.42;;
7983;SDS011;4037;47.980;10.172;2022-07-29T11:56:24;2.40;;;2.20;;
7983;SDS011;4037;47.980;10.172;2022-07-29T11:59:01;3.60;;;2.30;;
7983;SDS011;4037;47.980;10.172;2022-07-29T12:01:28;4.25;;;2.53;;
7983;SDS011;4037;47.980;10.172;2022-07-29T12:04:04;3.28;;;2.95;;
7983;SDS011;4037;47.980;10.172;2022-07-29T12:06:32;4.00;;;2.97;;
7983;SDS011;4037;47.980;10.172;2022-07-29T12:08:58;2.95;;;2.72;;
7983;SDS011;4037;47.980;10.172;2022-07-29T12:11:25;2.73;;;2.50;;
7983;SDS011;4037;47.980;10.172;2022-07-29T12:13:51;3.38;;;2.90;;
7983;SDS011;4037;47.980;10.172;2022-07-29T12:16:21;3.20;;;2.90;;
7983;SDS011;4037;47.980;10.172;2022-07-29T12:18:57;3.55;;;3.08;;
7983;SDS011;4037;47.980;10.172;2022-07-29T12:21:23;4.95;;;2.95;;
7983;SDS011;4037;47.980;10.172;2022-07-29T12:23:53;3.17;;;2.88;;
7983;SDS011;4037;47.980;10.172;2022-07-29T12:26:20;3.70;;;2.80;;
7983;SDS011;4037;47.980;10.172;2022-07-29T12:28:46;4.13;;;3.35;;
7983;SDS011;4037;47.980;10.172;2022-07-29T12:31:15;3.40;;;3.10;;
7983;SDS011;4037;47.980;10.172;2022-07-29T12:33:41;3.87;;;3.30;;
7983;SDS011;4037;47.980;10.172;2022-07-29T12:36:07;3.90;;;3.50;;
7983;SDS011;4037;47.980;10.172;2022-07-29T12:38:34;3.83;;;3.43;;
7983;SDS011;4037;47.980;10.172;2022-07-29T12:41:01;7.07;;;4.73;;
7983;SDS011;4037;47.980;10.172;2022-07-29T12:43:27;3.83;;;3.53;;
7983;SDS011;4037;47.980;10.172;2022-07-29T12:45:53;4.28;;;3.88;;
7983;SDS011;4037;47.980;10.172;2022-07-29T12:48:33;4.43;;;3.60;;
7983;SDS011;4037;47.980;10.172;2022-07-29T12:51:00;3.50;;;3.20;;
7983;SDS011;4037;47.980;10.172;2022-07-29T12:53:28;3.77;;;3.03;;
7983;SDS011;4037;47.980;10.172;2022-07-29T12:55:55;3.37;;;3.07;;
7983;SDS011;4037;47.980;10.172;2022-07-29T12:58:25;2.97;;;2.72;;
7983;SDS011;4037;47.980;10.172;2022-07-29T13:01:06;2.92;;;2.63;;
7983;SDS011;4037;47.980;10.172;2022-07-29T13:03:42;2.83;;;2.30;;
7983;SDS011;4037;47.980;10.172;2022-07-29T13:06:26;2.75;;;2.50;;
7983;SDS011;4037;47.980;10.172;2022-07-29T13:08:59;2.88;;;2.58;;
7983;SDS011;4037;47.980;10.172;2022-07-29T13:11:35;2.60;;;2.40;;
7983;SDS011;4037;47.980;10.172;2022-07-29T13:14:02;2.92;;;2.72;;
7983;SDS011;4037;47.980;10.172;2022-07-29T13:16:29;6.15;;;3.00;;
7983;SDS011;4037;47.980;10.172;2022-07-29T13:21:30;2.40;;;2.20;;
7983;SDS011;4037;47.980;10.172;2022-07-29T13:23:56;3.40;;;2.28;;
7983;SDS011;4037;47.980;10.172;2022-07-29T13:26:22;2.42;;;2.20;;
7983;SDS011;4037;47.980;10.172;2022-07-29T13:28:49;5.38;;;3.03;;
7983;SDS011;4037;47.980;10.172;2022-07-29T13:31:15;3.95;;;2.35;;
7983;SDS011;4037;47.980;10.172;2022-07-29T13:33:41;2.50;;;2.30;;
7983;SDS011;4037;47.980;10.172;2022-07-29T13:36:07;3.80;;;2.60;;
7983;SDS011;4037;47.980;10.172;2022-07-29T13:38:33;2.97;;;2.17;;
7983;SDS011;4037;47.980;10.172;2022-07-29T13:40:59;2.58;;;2.38;;
7983;SDS011;4037;47.980;10.172;2022-07-29T13:43:26;4.00;;;2.70;;
7983;SDS011;4037;47.980;10.172;2022-07-29T13:45:52;4.82;;;2.80;;
7983;SDS011;4037;47.980;10.172;2022-07-29T13:48:18;4.85;;;3.20;;
7983;SDS011;4037;47.980;10.172;2022-07-29T13:50:44;3.85;;;3.08;;
7983;SDS011;4037;47.980;10.172;2022-07-29T13:53:11;4.50;;;3.20;;
7983;SDS011;4037;47.980;10.172;2022-07-29T13:55:37;4.18;;;2.92;;
7983;SDS011;4037;47.980;10.172;2022-07-29T13:58:03;3.70;;;3.40;;
7983;SDS011;4037;47.980;10.172;2022-07-29T14:00:29;3.28;;;2.97;;
7983;SDS011;4037;47.980;10.172;2022-07-29T14:02:56;3.15;;;2.75;;
7983;SDS011;4037;47.980;10.172;2022-07-29T14:05:22;3.42;;;3.10;;
7983;SDS011;4037;47.980;10.172;2022-07-29T14:07:48;3.30;;;2.80;;
7983;SDS011;4037;47.980;10.172;2022-07-29T14:10:14;3.15;;;2.85;;
7983;SDS011;4037;47.980;10.172;2022-07-29T14:12:40;4.80;;;3.20;;
7983;SDS011;4037;47.980;10.172;2022-07-29T14:15:07;4.82;;;2.97;;
7983;SDS011;4037;47.980;10.172;2022-07-29T14:17:33;3.60;;;3.05;;
7983;SDS011;4037;47.980;10.172;2022-07-29T14:19:59;4.10;;;3.38;;
7983;SDS011;4037;47.980;10.172;2022-07-29T14:22:25;4.78;;;3.72;;
7983;SDS011;4037;47.980;10.172;2022-07-29T14:24:51;4.00;;;3.25;;
7983;SDS011;4037;47.980;10.172;2022-07-29T14:27:17;3.78;;;3.30;;
7983;SDS011;4037;47.980;10.172;2022-07-29T14:29:43;3.35;;;3.00;;
7983;SDS011;4037;47.980;10.172;2022-07-29T14:32:09;3.42;;;2.90;;
7983;SDS011;4037;47.980;10.172;2022-07-29T14:34:36;2.72;;;2.53;;
7983;SDS011;4037;47.980;10.172;2022-07-29T14:37:03;3.25;;;2.95;;
7983;SDS011;4037;47.980;10.172;2022-07-29T14:39:30;3.35;;;3.05;;
7983;SDS011;4037;47.980;10.172;2022-07-29T14:41:56;2.72;;;2.53;;
7983;SDS011;4037;47.980;10.172;2022-07-29T14:44:22;4.55;;;3.13;;
7983;SDS011;4037;47.980;10.172;2022-07-29T14:46:49;3.83;;;3.22;;
7983;SDS011;4037;47.980;10.172;2022-07-29T14:49:15;3.92;;;2.83;;
7983;SDS011;4037;47.980;10.172;2022-07-29T14:51:41;4.22;;;2.90;;
7983;SDS011;4037;47.980;10.172;2022-07-29T14:54:07;3.08;;;2.33;;
7983;SDS011;4037;47.980;10.172;2022-07-29T14:56:33;3.25;;;2.78;;
7983;SDS011;4037;47.980;10.172;2022-07-29T14:58:59;2.97;;;2.78;;
7983;SDS011;4037;47.980;10.172;2022-07-29T15:01:25;3.38;;;2.72;;
7983;SDS011;4037;47.980;10.172;2022-07-29T15:03:51;3.33;;;2.78;;
7983;SDS011;4037;47.980;10.172;2022-07-29T15:06:17;4.43;;;2.85;;
7983;SDS011;4037;47.980;10.172;2022-07-29T15:08:43;3.13;;;2.83;;
7983;SDS011;4037;47.980;10.172;2022-07-29T15:11:09;3.17;;;2.60;;
7983;SDS011;4037;47.980;10.172;2022-07-29T15:13:35;5.18;;;3.35;;
7983;SDS011;4037;47.980;10.172;2022-07-29T15:16:02;3.28;;;2.70;;
7983;SDS011;4037;47.980;10.172;2022-07-29T15:18:28;4.22;;;3.38;;
7983;SDS011;4037;47.980;10.172;2022-07-29T15:20:54;11.02;;;2.60;;
7983;SDS011;4037;47.980;10.172;2022-07-29T15:23:20;4.75;;;2.90;;
7983;SDS011;4037;47.980;10.172;2022-07-29T15:25:46;2.90;;;2.60;;
7983;SDS011;4037;47.980;10.172;2022-07-29T15:28:12;3.95;;;2.85;;
7983;SDS011;4037;47.980;10.172;2022-07-29T15:30:38;3.58;;;3.00;;
7983;SDS011;4037;47.980;10.172;2022-07-29T15:33:07;3.20;;;2.33;;
7983;SDS011;4037;47.980;10.172;2022-07-29T15:35:34;2.90;;;2.60;;
7983;SDS011;4037;47.980;10.172;2022-07-29T15:38:00;3.17;;;2.85;;
7983;SDS011;4037;47.980;10.172;2022-07-29T15:40:26;3.47;;;2.03;;
7983;SDS011;4037;47.980;10.172;2022-07-29T15:42:52;4.53;;;1.87;;
7983;SDS011;4037;47.980;10.172;2022-07-29T15:45:18;2.58;;;1.60;;
7983;SDS011;4037;47.980;10.172;2022-07-29T15:47:44;2.20;;;1.70;;
7983;SDS011;4037;47.980;10.172;2022-07-29T15:50:10;11.53;;;4.87;;
7983;SDS011;4037;47.980;10.172;2022-07-29T15:52:40;5.37;;;2.63;;
7983;SDS011;4037;47.980;10.172;2022-07-29T15:55:06;4.20;;;2.50;;
7983;SDS011;4037;47.980;10.172;2022-07-29T15:57:32;5.63;;;2.43;;
7983;SDS011;4037;47.980;10.172;2022-07-29T15:59:58;5.10;;;3.13;;